createdAt,value
2023-03-29T00:01:12.375Z,57.20
2023-03-29T00:04:02.506Z,56.98
2023-03-29T00:06:33.144Z,56.97
2023-03-29T00:09:01.818Z,57.22
2023-03-29T00:11:29.798Z,56.82
2023-03-29T00:13:57.597Z,56.86
2023-03-29T00:16:25.544Z,57.17
2023-03-29T00:18:53.424Z,57.07
2023-03-29T00:21:21.202Z,57.18
2023-03-29T00:23:50.521Z,56.89
2023-03-29T00:26:18.273Z,57.05
2023-03-29T00:28:46.044Z,56.88
2023-03-29T00:31:15.516Z,57.03
2023-03-29T00:33:44.175Z,56.96
2023-03-29T00:36:13.493Z,57.22
2023-03-29T00:38:41.628Z,57.02
2023-03-29T00:41:11.648Z,57.69
2023-03-29T00:44:00.785Z,56.75
2023-03-29T00:46:30.608Z,57.03
2023-03-29T00:49:01.960Z,57.00
2023-03-29T00:51:34.228Z,57.40
2023-03-29T00:54:04.578Z,57.17
2023-03-29T00:56:37.451Z,57.87
2023-03-29T00:59:08.012Z,57.70
2023-03-29T01:01:42.159Z,57.35
2023-03-29T01:04:18.375Z,57.84
2023-03-29T01:06:49.593Z,57.69
2023-03-29T01:09:21.057Z,57.72
2023-03-29T01:11:55.350Z,58.05
2023-03-29T01:14:30.931Z,58.16
2023-03-29T01:16:59.456Z,57.42
2023-03-29T01:19:33.962Z,58.09
2023-03-29T01:22:13.509Z,57.59
2023-03-29T01:24:56.600Z,58.08
2023-03-29T01:27:40.315Z,57.80
2023-03-29T01:30:14.170Z,57.63
2023-03-29T01:32:48.822Z,57.77
2023-03-29T01:35:22.224Z,58.30
2023-03-29T01:37:57.152Z,58.54
2023-03-29T01:40:28.128Z,58.22
2023-03-29T01:43:05.533Z,57.93
2023-03-29T01:45:37.830Z,58.19
2023-03-29T01:48:11.999Z,58.06
2023-03-29T01:50:46.129Z,58.09
2023-03-29T01:53:20.128Z,57.71
2023-03-29T01:55:52.845Z,58.49
2023-03-29T01:58:24.874Z,58.25
2023-03-29T02:00:55.336Z,57.90
2023-03-29T02:03:26.655Z,58.77
2023-03-29T02:05:56.172Z,58.16
2023-03-29T02:08:24.267Z,58.54
2023-03-29T02:10:52.840Z,58.36
2023-03-29T02:13:22.115Z,57.73
2023-03-29T02:15:49.937Z,57.87
2023-03-29T02:18:19.864Z,58.54
2023-03-29T02:20:50.059Z,58.25
2023-03-29T02:23:23.471Z,58.38
2023-03-29T02:25:53.552Z,58.50
2023-03-29T02:28:24.422Z,58.28
2023-03-29T02:30:57.622Z,57.61
2023-03-29T02:33:31.180Z,58.06
2023-03-29T02:36:04.383Z,58.03
2023-03-29T02:38:33.251Z,57.76
2023-03-29T02:41:02.469Z,58.48
2023-03-29T02:43:33.782Z,58.42
2023-03-29T02:46:02.575Z,58.49
2023-03-29T02:48:31.977Z,58.20
2023-03-29T02:51:04.459Z,58.55
2023-03-29T02:53:38.941Z,58.04
2023-03-29T02:56:07.760Z,57.85
2023-03-29T02:58:36.910Z,57.88
2023-03-29T03:01:06.845Z,58.44
2023-03-29T03:03:35.848Z,57.72
2023-03-29T03:06:03.749Z,58.00
2023-03-29T03:08:32.188Z,58.49
2023-03-29T03:11:00.249Z,58.35
2023-03-29T03:13:28.110Z,57.92
2023-03-29T03:15:57.334Z,58.33
2023-03-29T03:18:25.106Z,58.65
2023-03-29T03:20:56.917Z,57.76
2023-03-29T03:23:25.066Z,57.95
2023-03-29T03:25:53.696Z,58.36
2023-03-29T03:28:22.096Z,58.49
2023-03-29T03:30:49.977Z,58.56
2023-03-29T03:33:19.411Z,58.27
2023-03-29T03:35:47.976Z,57.79
2023-03-29T03:38:16.673Z,58.81
2023-03-29T03:40:44.464Z,58.35
2023-03-29T03:43:12.666Z,58.47
2023-03-29T03:45:40.442Z,58.72
2023-03-29T03:48:08.722Z,58.45
2023-03-29T03:50:38.326Z,58.66
2023-03-29T03:53:06.091Z,58.27
2023-03-29T03:55:34.569Z,58.03
2023-03-29T03:58:02.338Z,58.26
2023-03-29T04:00:30.087Z,58.27
2023-03-29T04:02:57.915Z,58.90
2023-03-29T04:05:25.803Z,58.83
2023-03-29T04:07:56.131Z,57.94
2023-03-29T04:10:23.873Z,58.34
2023-03-29T04:12:51.622Z,58.72
2023-03-29T04:15:20.334Z,57.98
2023-03-29T04:17:48.182Z,58.57
2023-03-29T04:20:16.663Z,58.55
2023-03-29T04:22:44.424Z,58.53
2023-03-29T04:25:13.601Z,58.08
2023-03-29T04:27:41.668Z,57.85
2023-03-29T04:30:11.004Z,58.51
2023-03-29T04:32:39.053Z,58.63
2023-03-29T04:35:08.019Z,58.20
2023-03-29T04:37:35.823Z,58.40
2023-03-29T04:40:09.556Z,58.41
2023-03-29T04:42:39.009Z,57.97
2023-03-29T04:45:08.048Z,58.33
2023-03-29T04:47:36.606Z,58.84
2023-03-29T04:50:05.006Z,58.49
2023-03-29T04:52:33.394Z,58.42
2023-03-29T04:55:01.495Z,58.61
2023-03-29T04:57:29.837Z,58.93
2023-03-29T04:59:58.983Z,58.95
2023-03-29T05:02:27.133Z,58.07
2023-03-29T05:04:54.995Z,58.40
2023-03-29T05:07:22.991Z,58.45
2023-03-29T05:09:50.736Z,58.86
2023-03-29T05:12:18.496Z,59.00
2023-03-29T05:14:46.773Z,58.78
2023-03-29T05:17:15.842Z,58.45
2023-03-29T05:19:44.518Z,58.10
2023-03-29T05:22:12.324Z,58.15
2023-03-29T05:24:40.099Z,58.60
2023-03-29T05:27:07.855Z,59.05
2023-03-29T05:29:35.615Z,58.96
2023-03-29T05:32:03.406Z,58.31
2023-03-29T05:34:32.598Z,58.05
2023-03-29T05:37:01.561Z,58.90
2023-03-29T05:39:29.445Z,58.16
2023-03-29T05:41:57.173Z,58.62
2023-03-29T05:44:24.930Z,58.73
2023-03-29T05:46:53.116Z,58.22
2023-03-29T05:49:21.536Z,58.53
2023-03-29T05:51:52.060Z,58.40
2023-03-29T05:54:19.863Z,58.36
2023-03-29T05:56:47.689Z,58.76
2023-03-29T05:59:15.506Z,59.10
2023-03-29T06:01:45.386Z,58.65
2023-03-29T06:04:13.448Z,58.67
2023-03-29T06:06:41.676Z,58.50
2023-03-29T06:09:10.852Z,58.95
2023-03-29T06:11:39.295Z,59.02
2023-03-29T06:14:07.688Z,58.99
2023-03-29T06:16:36.427Z,59.52
2023-03-29T06:19:05.339Z,59.54
2023-03-29T06:21:33.075Z,59.66
2023-03-29T06:24:01.224Z,59.46
2023-03-29T06:26:30.636Z,59.23
2023-03-29T06:28:58.508Z,59.69
2023-03-29T06:31:26.544Z,58.66
2023-03-29T06:33:54.361Z,58.52
2023-03-29T06:36:22.390Z,58.00
2023-03-29T06:38:50.170Z,57.56
2023-03-29T06:41:17.962Z,56.41
2023-03-29T06:43:47.038Z,55.94
2023-03-29T06:46:15.037Z,55.40
2023-03-29T06:48:42.904Z,55.08
2023-03-29T06:51:10.674Z,55.27
2023-03-29T06:53:38.515Z,55.79
2023-03-29T06:56:09.381Z,56.31
2023-03-29T06:58:37.971Z,56.79
2023-03-29T07:01:07.744Z,57.52
2023-03-29T07:03:36.364Z,57.21
2023-03-29T07:06:09.958Z,57.92
2023-03-29T07:08:43.578Z,57.59
2023-03-29T07:11:13.619Z,58.16
2023-03-29T07:13:42.395Z,58.15
2023-03-29T07:16:12.841Z,58.85
2023-03-29T07:18:41.602Z,58.58
2023-03-29T07:21:10.593Z,58.60
2023-03-29T07:23:38.988Z,59.24
2023-03-29T07:26:08.136Z,59.61
2023-03-29T07:28:37.536Z,59.43
2023-03-29T07:31:06.772Z,59.02
2023-03-29T07:33:35.979Z,59.56
2023-03-29T07:36:04.882Z,59.79
2023-03-29T07:38:32.971Z,60.07
2023-03-29T07:41:04.073Z,60.30
2023-03-29T07:43:32.120Z,60.36
2023-03-29T07:46:02.081Z,60.25
2023-03-29T07:48:30.289Z,59.68
2023-03-29T07:50:59.441Z,59.90
2023-03-29T07:53:29.752Z,60.13
2023-03-29T07:55:57.716Z,60.50
2023-03-29T07:58:25.576Z,60.22
2023-03-29T08:00:53.431Z,60.00
2023-03-29T08:03:21.746Z,60.31
2023-03-29T08:05:49.564Z,60.90
2023-03-29T08:08:18.698Z,60.26
2023-03-29T08:10:46.402Z,61.06
2023-03-29T08:13:14.225Z,60.52
2023-03-29T08:15:46.352Z,61.16
2023-03-29T08:18:14.247Z,60.66
2023-03-29T08:20:42.599Z,60.58
2023-03-29T08:23:10.765Z,60.42
2023-03-29T08:25:39.889Z,60.16
2023-03-29T08:28:07.927Z,59.15
2023-03-29T08:30:36.170Z,58.42
2023-03-29T08:33:04.014Z,58.51
2023-03-29T08:35:32.280Z,57.31
2023-03-29T08:38:02.154Z,56.45
2023-03-29T08:40:31.415Z,56.41
2023-03-29T08:43:33.517Z,55.88
2023-03-29T08:46:12.884Z,56.15
2023-03-29T08:48:45.236Z,55.49
2023-03-29T08:51:21.534Z,55.42
2023-03-29T08:53:53.514Z,55.46
2023-03-29T08:56:26.210Z,55.32
2023-03-29T08:58:57.709Z,55.09
2023-03-29T09:01:29.754Z,55.09
2023-03-29T09:04:07.050Z,55.09
2023-03-29T09:06:34.849Z,55.13
2023-03-29T09:09:02.683Z,54.91
2023-03-29T09:11:49.585Z,54.86
2023-03-29T09:14:40.259Z,55.41
2023-03-29T09:17:17.914Z,55.37
2023-03-29T09:19:56.118Z,55.46
2023-03-29T09:22:31.894Z,56.07
2023-03-29T09:25:12.382Z,56.79
2023-03-29T09:27:47.423Z,57.59
2023-03-29T09:30:25.901Z,58.38
2023-03-29T09:32:55.364Z,58.48
2023-03-29T09:35:25.110Z,59.78
2023-03-29T09:37:55.009Z,59.61
2023-03-29T09:40:27.338Z,60.06
2023-03-29T09:42:56.787Z,61.04
2023-03-29T09:45:25.941Z,59.49
2023-03-29T09:47:58.083Z,59.77
2023-03-29T09:50:32.341Z,59.48
2023-03-29T09:53:00.660Z,58.24
2023-03-29T09:55:31.084Z,57.67
2023-03-29T09:58:01.933Z,57.58
2023-03-29T10:00:31.114Z,57.75
2023-03-29T10:03:00.271Z,57.37
2023-03-29T10:05:37.851Z,58.05
2023-03-29T10:08:19.836Z,58.49
2023-03-29T10:10:48.472Z,59.34
2023-03-29T10:13:24.106Z,59.29
2023-03-29T10:16:07.547Z,59.50
2023-03-29T10:18:41.613Z,60.54
2023-03-29T10:21:14.463Z,60.90
2023-03-29T10:23:43.860Z,60.87
2023-03-29T10:26:22.917Z,60.89
2023-03-29T10:28:53.943Z,61.11
2023-03-29T10:31:24.407Z,61.18
2023-03-29T10:33:54.936Z,61.84
2023-03-29T10:36:24.429Z,61.12
2023-03-29T10:38:54.190Z,61.94
2023-03-29T10:41:24.081Z,62.45
2023-03-29T10:43:52.522Z,62.25
2023-03-29T10:46:24.249Z,61.84
2023-03-29T10:48:57.439Z,62.51
2023-03-29T10:51:27.728Z,62.19
2023-03-29T10:53:55.472Z,62.40
2023-03-29T10:56:37.141Z,62.89
2023-03-29T10:59:23.142Z,62.77
2023-03-29T11:02:06.683Z,62.44
2023-03-29T11:04:44.015Z,62.36
2023-03-29T11:07:27.197Z,62.46
2023-03-29T11:10:03.347Z,62.50
2023-03-29T11:12:40.120Z,62.87
2023-03-29T11:15:34.422Z,63.14
2023-03-29T11:18:26.250Z,63.21
2023-03-29T11:20:59.249Z,62.97
2023-03-29T11:23:40.365Z,63.07
2023-03-29T11:26:16.659Z,63.25
2023-03-29T11:28:53.068Z,62.98
2023-03-29T11:31:32.685Z,63.17
2023-03-29T11:34:15.712Z,62.83
2023-03-29T11:36:52.751Z,62.78
2023-03-29T11:39:31.483Z,63.35
2023-03-29T11:42:09.313Z,63.45
2023-03-29T11:44:38.480Z,63.68
2023-03-29T11:47:12.009Z,63.87
2023-03-29T11:49:45.560Z,64.33
2023-03-29T11:52:19.323Z,64.38
2023-03-29T11:54:51.913Z,63.16
2023-03-29T11:57:24.694Z,63.09
2023-03-29T12:00:00.402Z,63.49
2023-03-29T12:02:34.591Z,63.52
2023-03-29T12:05:12.852Z,63.67
2023-03-29T12:07:48.408Z,66.83
2023-03-29T12:10:20.531Z,65.87
2023-03-29T12:12:56.366Z,65.04
2023-03-29T12:15:26.331Z,64.96
2023-03-29T12:18:03.522Z,64.92
2023-03-29T12:20:37.870Z,65.14
2023-03-29T12:23:07.003Z,64.83
2023-03-29T12:25:42.220Z,63.79
2023-03-29T12:28:26.242Z,63.74
2023-03-29T12:31:02.520Z,61.80
2023-03-29T12:33:53.035Z,61.91
2023-03-29T12:36:52.691Z,62.02
2023-03-29T12:39:22.958Z,61.90
2023-03-29T12:41:53.411Z,61.96
2023-03-29T12:44:24.214Z,62.07
2023-03-29T12:46:54.743Z,62.57
2023-03-29T12:49:29.287Z,62.64
2023-03-29T12:52:00.783Z,62.93
2023-03-29T12:54:31.860Z,63.01
2023-03-29T12:57:02.671Z,63.60
2023-03-29T12:59:39.379Z,63.58
2023-03-29T13:02:27.169Z,63.58
2023-03-29T13:04:56.808Z,63.74
2023-03-29T13:07:46.339Z,64.08
2023-03-29T13:10:38.991Z,64.65
2023-03-29T13:13:16.560Z,64.14
2023-03-29T13:15:45.710Z,63.89
2023-03-29T13:18:32.226Z,63.64
2023-03-29T13:21:05.772Z,63.98
2023-03-29T13:23:45.881Z,63.93
2023-03-29T13:26:30.031Z,63.46
2023-03-29T13:29:22.528Z,63.74
2023-03-29T13:31:57.358Z,63.94
2023-03-29T13:34:36.623Z,64.43
2023-03-29T13:37:12.977Z,64.54
2023-03-29T13:39:50.704Z,64.49
2023-03-29T13:42:21.652Z,64.68
2023-03-29T13:44:49.925Z,64.91
2023-03-29T13:47:38.154Z,64.78
2023-03-29T13:50:12.849Z,64.53
2023-03-29T13:52:45.723Z,65.38
2023-03-29T13:55:20.994Z,64.07
2023-03-29T13:57:54.301Z,64.23
2023-03-29T14:00:26.515Z,65.00
2023-03-29T14:02:58.565Z,64.39
2023-03-29T14:05:31.516Z,64.15
2023-03-29T14:08:10.723Z,64.91
2023-03-29T14:10:42.544Z,63.94
2023-03-29T14:13:13.637Z,64.26
2023-03-29T14:15:50.745Z,64.78
2023-03-29T14:18:22.247Z,65.32
2023-03-29T14:20:53.640Z,65.63
2023-03-29T14:23:24.683Z,65.19
2023-03-29T14:25:54.018Z,64.85
2023-03-29T14:28:23.861Z,65.10
2023-03-29T14:30:52.818Z,65.24
2023-03-29T14:33:28.255Z,65.85
2023-03-29T14:35:56.941Z,64.96
2023-03-29T14:38:27.051Z,64.84
2023-03-29T14:41:00.602Z,65.41
2023-03-29T14:43:32.041Z,65.50
2023-03-29T14:46:03.499Z,65.95
2023-03-29T14:48:33.202Z,65.21
2023-03-29T14:51:01.720Z,65.28
2023-03-29T14:53:32.301Z,64.86
2023-03-29T14:56:02.428Z,65.33
2023-03-29T14:58:33.512Z,64.83
2023-03-29T15:01:05.887Z,64.31
2023-03-29T15:03:44.092Z,64.02
2023-03-29T15:06:14.271Z,64.39
2023-03-29T15:08:51.129Z,64.79
2023-03-29T15:11:27.213Z,64.91
2023-03-29T15:14:05.258Z,65.01
2023-03-29T15:16:34.023Z,65.18
2023-03-29T15:19:03.128Z,65.26
2023-03-29T15:21:34.477Z,64.99
2023-03-29T15:24:04.238Z,65.07
2023-03-29T15:26:35.153Z,65.53
2023-03-29T15:29:08.533Z,66.54
2023-03-29T15:31:38.973Z,65.76
2023-03-29T15:34:09.513Z,66.16
2023-03-29T15:36:42.450Z,65.97
2023-03-29T15:39:12.998Z,66.18
2023-03-29T15:41:42.313Z,66.41
2023-03-29T15:44:10.802Z,66.46
2023-03-29T15:46:38.600Z,66.86
2023-03-29T15:49:06.350Z,67.04
2023-03-29T15:51:34.191Z,67.01
2023-03-29T15:54:02.050Z,66.86
2023-03-29T15:56:30.029Z,67.12
2023-03-29T15:58:59.166Z,66.75
2023-03-29T16:01:34.695Z,67.17
2023-03-29T16:04:03.264Z,67.12
2023-03-29T16:06:31.257Z,66.71
2023-03-29T16:08:59.182Z,67.02
2023-03-29T16:11:28.438Z,66.73
2023-03-29T16:13:56.483Z,67.03
2023-03-29T16:16:27.102Z,67.26
2023-03-29T16:18:54.906Z,67.24
2023-03-29T16:21:24.387Z,67.44
2023-03-29T16:23:52.374Z,67.55
2023-03-29T16:26:20.117Z,66.67
2023-03-29T16:28:47.820Z,66.00
2023-03-29T16:31:15.795Z,65.72
2023-03-29T16:33:44.969Z,64.79
2023-03-29T16:36:13.206Z,64.54
2023-03-29T16:38:41.596Z,64.31
2023-03-29T16:41:14.925Z,64.55
2023-03-29T16:43:42.755Z,64.71
2023-03-29T16:46:11.687Z,65.17
2023-03-29T16:48:40.021Z,65.72
2023-03-29T16:51:10.848Z,65.66
2023-03-29T16:53:38.700Z,65.96
2023-03-29T16:56:07.867Z,66.34
2023-03-29T16:58:36.199Z,66.45
2023-03-29T17:01:09.940Z,66.60
2023-03-29T17:03:37.986Z,66.41
2023-03-29T17:06:06.932Z,67.05
2023-03-29T17:08:36.690Z,66.83
2023-03-29T17:11:06.309Z,66.80
2023-03-29T17:13:34.411Z,67.01
2023-03-29T17:16:02.728Z,66.92
2023-03-29T17:18:30.870Z,66.99
2023-03-29T17:21:00.020Z,67.08
2023-03-29T17:23:27.800Z,67.25
2023-03-29T17:25:56.941Z,67.30
2023-03-29T17:28:25.055Z,66.96
2023-03-29T17:30:53.203Z,66.93
2023-03-29T17:33:22.426Z,66.96
2023-03-29T17:35:50.627Z,67.29
2023-03-29T17:38:19.379Z,66.95
2023-03-29T17:40:53.177Z,67.08
2023-03-29T17:43:22.469Z,67.11
2023-03-29T17:45:51.993Z,67.39
2023-03-29T17:48:19.936Z,67.33
2023-03-29T17:50:47.833Z,67.40
2023-03-29T17:53:15.705Z,66.88
2023-03-29T17:55:43.515Z,67.11
2023-03-29T17:58:11.740Z,66.91
2023-03-29T18:00:41.022Z,67.33
2023-03-29T18:03:08.913Z,67.21
2023-03-29T18:05:36.977Z,67.11
2023-03-29T18:08:05.155Z,67.77
2023-03-29T18:10:32.980Z,67.58
2023-03-29T18:13:01.044Z,67.50
2023-03-29T18:15:28.865Z,67.20
2023-03-29T18:17:58.296Z,67.43
2023-03-29T18:20:26.227Z,68.00
2023-03-29T18:22:54.036Z,67.42
2023-03-29T18:25:22.133Z,66.45
2023-03-29T18:27:50.080Z,65.74
2023-03-29T18:30:17.968Z,65.14
2023-03-29T18:32:45.913Z,64.25
2023-03-29T18:35:15.129Z,64.87
2023-03-29T18:37:42.891Z,65.12
2023-03-29T18:40:11.058Z,65.07
2023-03-29T18:42:38.855Z,65.36
2023-03-29T18:45:07.459Z,65.91
2023-03-29T18:47:35.278Z,65.88
2023-03-29T18:50:03.414Z,66.49
2023-03-29T18:52:32.564Z,66.61
2023-03-29T18:55:00.313Z,66.86
2023-03-29T18:57:28.169Z,66.99
2023-03-29T18:59:55.993Z,66.94
2023-03-29T19:02:23.902Z,67.20
2023-03-29T19:04:51.835Z,67.35
2023-03-29T19:07:20.623Z,67.28
2023-03-29T19:09:49.821Z,67.26
2023-03-29T19:12:17.571Z,67.44
2023-03-29T19:14:45.398Z,66.93
2023-03-29T19:17:13.215Z,67.09
2023-03-29T19:19:41.173Z,67.27
2023-03-29T19:22:09.026Z,67.19
2023-03-29T19:24:36.831Z,67.38
2023-03-29T19:27:06.469Z,67.10
2023-03-29T19:29:34.289Z,67.20
2023-03-29T19:32:02.117Z,67.14
2023-03-29T19:34:30.535Z,67.47
2023-03-29T19:37:00.247Z,67.03
2023-03-29T19:39:29.751Z,66.88
2023-03-29T19:41:57.664Z,67.43
2023-03-29T19:44:28.132Z,67.45
2023-03-29T19:46:55.889Z,66.90
2023-03-29T19:49:23.731Z,67.01
2023-03-29T19:51:54.438Z,66.92
2023-03-29T19:54:23.484Z,67.49
2023-03-29T19:56:52.694Z,67.32
2023-03-29T19:59:20.719Z,67.22
2023-03-29T20:01:51.813Z,67.33
2023-03-29T20:04:20.024Z,67.15
2023-03-29T20:06:47.834Z,66.97
2023-03-29T20:09:16.179Z,67.36
2023-03-29T20:11:44.647Z,67.20
2023-03-29T20:14:12.610Z,66.99
2023-03-29T20:16:41.724Z,67.10
2023-03-29T20:19:14.107Z,67.33
2023-03-29T20:21:42.005Z,67.36
2023-03-29T20:24:09.890Z,66.90
2023-03-29T20:26:37.837Z,67.15
2023-03-29T20:29:06.206Z,66.76
2023-03-29T20:31:34.015Z,66.87
2023-03-29T20:34:01.839Z,67.06
2023-03-29T20:36:31.725Z,67.04
2023-03-29T20:39:00.261Z,66.86
2023-03-29T20:41:28.070Z,67.09
2023-03-29T20:43:59.716Z,67.19
2023-03-29T20:46:33.286Z,66.98
2023-03-29T20:49:01.545Z,66.99
2023-03-29T20:51:32.061Z,66.68
2023-03-29T20:54:04.560Z,67.24
2023-03-29T20:56:34.312Z,66.95
2023-03-29T20:59:03.947Z,66.97
2023-03-29T21:01:31.813Z,66.67
2023-03-29T21:03:59.901Z,66.93
2023-03-29T21:06:28.021Z,66.90
2023-03-29T21:08:57.487Z,66.91
2023-03-29T21:11:25.649Z,66.76
2023-03-29T21:13:53.907Z,66.97
2023-03-29T21:16:21.739Z,66.78
2023-03-29T21:18:49.521Z,67.02
2023-03-29T21:21:17.410Z,66.79
2023-03-29T21:23:45.223Z,66.66
2023-03-29T21:26:16.462Z,66.71
2023-03-29T21:28:44.271Z,66.63
2023-03-29T21:31:12.067Z,66.99
2023-03-29T21:33:39.886Z,66.61
2023-03-29T21:36:08.253Z,66.42
2023-03-29T21:38:36.148Z,66.55
2023-03-29T21:41:04.065Z,66.52
2023-03-29T21:43:33.381Z,66.70
2023-03-29T21:46:01.279Z,66.86
2023-03-29T21:48:29.057Z,66.49
2023-03-29T21:50:56.789Z,66.35
2023-03-29T21:53:24.643Z,66.51
2023-03-29T21:55:52.753Z,66.51
2023-03-29T21:58:20.864Z,66.39
2023-03-29T22:00:50.004Z,66.65
2023-03-29T22:03:18.053Z,66.65
2023-03-29T22:05:57.163Z,66.64
2023-03-29T22:08:26.252Z,66.09
2023-03-29T22:10:56.999Z,66.66
2023-03-29T22:13:26.157Z,66.41
2023-03-29T22:15:59.627Z,66.09
2023-03-29T22:18:28.053Z,65.98
2023-03-29T22:20:55.914Z,66.37
2023-03-29T22:23:24.850Z,66.17
2023-03-29T22:25:52.677Z,66.24
2023-03-29T22:28:20.474Z,66.40
2023-03-29T22:30:48.223Z,66.32
2023-03-29T22:33:17.359Z,66.18
2023-03-29T22:35:45.134Z,66.29
2023-03-29T22:38:12.907Z,66.33
2023-03-29T22:40:41.169Z,65.73
2023-03-29T22:43:08.853Z,66.12
2023-03-29T22:45:37.068Z,65.68
2023-03-29T22:48:05.104Z,66.02
2023-03-29T22:50:34.232Z,65.77
2023-03-29T22:53:01.955Z,66.13
2023-03-29T22:55:29.781Z,65.60
2023-03-29T22:57:57.500Z,65.78
2023-03-29T23:00:25.224Z,66.16
2023-03-29T23:02:53.092Z,66.06
2023-03-29T23:05:21.096Z,65.94
2023-03-29T23:07:50.544Z,65.90
2023-03-29T23:10:18.473Z,65.86
2023-03-29T23:12:46.702Z,65.78
2023-03-29T23:15:14.560Z,65.98
2023-03-29T23:17:42.312Z,65.79
2023-03-29T23:20:11.386Z,65.86
2023-03-29T23:22:39.726Z,65.75
2023-03-29T23:25:09.751Z,65.83
2023-03-29T23:27:37.602Z,65.63
2023-03-29T23:30:07.519Z,65.76
2023-03-29T23:32:35.319Z,65.65
2023-03-29T23:35:04.474Z,65.51
2023-03-29T23:37:32.185Z,65.34
2023-03-29T23:39:59.926Z,65.36
2023-03-29T23:42:30.811Z,65.48
2023-03-29T23:44:58.546Z,65.77
2023-03-29T23:47:27.804Z,65.56
2023-03-29T23:49:55.765Z,65.58
2023-03-29T23:52:23.515Z,65.32
2023-03-29T23:54:51.516Z,65.32
2023-03-29T23:57:19.462Z,65.52
2023-03-29T23:59:52.790Z,65.47
